Tuesday, October 21, 2014
16:50 UTC
  |  Log In   |  Register Free
Airport Search:

Bishop International Airport
(KFNT)

FAA data valid effective September 18, 2014 - November 13, 2014 (unless otherwise noted).

 
 
 
 
 
 
 
 
 
 
 
 
 
 

Current Aviation Weather for Bishop International Airport (KFNT)

The most recent METAR observation for KFNT was updated at: 1611
METAR Summary (Translated METAR)
KFNT
211553Z 36011KT 10SM OVC024 08/04 A3008 RMK AO2 SLP189 T00830039
KRNP
211554Z AUTO 35010KT 10SM SCT020 OVC027 08/04 A3009 RMK AO2 T00750036
(17.4 nm NW from KFNT)
KOZW
211555Z AUTO 35007G14KT 10SM SCT015 OVC022 07/05 A3006 RMK AO2 T00670047
(22.7 nm SW from KFNT)
TAF Summary (Translated TAF)
KFNT
211154Z 2112/2212 32007KT 2SM -SHRA BR BKN007 OVC012 FM211300 32008KT P6SM OVC015 FM211500 34012G20KT P6SM OVC025 FM212300 36008KT P6SM OVC025
  Airport Weather Conditions for KFNT

 Current Weather at FNT
47° F
Overcast
North winds at 12.7 mph
FNT NOAA Radar

Pressure: 30.08 in
Humidity: 74%
Wind: North at 12.7 MPH (11 KT)
Dew Point: 39.0°F
Visibility: 10.00 mi


Airport Weather Forecast for KFNT

Translated METAR and TAF for KFNT
Translated METAR for KFNT (1645 UTC 21 October 2014)
found at http://aviationweather.gov/adds/metars/
 
METAR text: KFNT 211553Z 36011KT 10SM OVC024 08/04 A3008 RMK AO2 SLP189 T00830039
Conditions at: KFNT (FLINT , MI, US) observed 1553 UTC 21 October 2014
Temperature: 8.3°C (47°F)
Dewpoint: 3.9°C (39°F) [RH = 74%]
Pressure (altimeter): 30.08 inches Hg (1018.7 mb)
[Sea-level pressure: 1018.9 mb]
Winds: from the N (360 degrees) at 13 MPH (11 knots; 5.7 m/s)
Visibility: 10 or more miles (16+ km)
Ceiling: 2400 feet AGL
Clouds: overcast cloud deck at 2400 feet AGL
Weather: no significant weather observed at this time
Translated TAF for KFNT
Forecast for: KFNT (FLINT , MI, US)
TAF Text: KFNT 211154Z 2112/2212 32007KT 2SM -SHRA BR BKN007 OVC012
Forecast period: 1200 to 1300 UTC 21 October 2014
Forecast type: FROM: standard forecast or significant change
Winds: from the NW (320 degrees) at 8 MPH (7 knots; 3.6 m/s)
Visibility: 2.00 miles (3.22 km)
Ceiling: 700 feet AGL
Clouds: broken clouds at 700 feet AGL
overcast cloud deck at 1200 feet AGL
Weather: -SHRA BR  (light rain showers, mist)
TAF Text: FM211300 32008KT P6SM OVC015
Forecast period: 1300 to 1500 UTC 21 October 2014
Forecast type: FROM: standard forecast or significant change
Winds: from the NW (320 degrees) at 9 MPH (8 knots; 4.2 m/s)
Visibility: 6 or more miles (10+ km)
Ceiling: 1500 feet AGL
Clouds: overcast cloud deck at 1500 feet AGL
Weather: no significant weather forecast for this period
TAF Text: FM211500 34012G20KT P6SM OVC025
Forecast period: 1500 to 2300 UTC 21 October 2014
Forecast type: FROM: standard forecast or significant change
Winds: from the NNW (340 degrees) at 14 MPH (12 knots; 6.2 m/s)
gusting to 23 MPH (20 knots; 10.4 m/s)
Visibility: 6 or more miles (10+ km)
Ceiling: 2500 feet AGL
Clouds: overcast cloud deck at 2500 feet AGL
Weather: no significant weather forecast for this period
TAF Text: FM212300 36008KT P6SM OVC025
Forecast period: 2300 UTC 21 October 2014 to 1200 UTC 22 October 2014
Forecast type: FROM: standard forecast or significant change
Winds: from the N (360 degrees) at 9 MPH (8 knots; 4.2 m/s)
Visibility: 6 or more miles (10+ km)
Ceiling: 2500 feet AGL
Clouds: overcast cloud deck at 2500 feet AGL
Weather: no significant weather forecast for this period

Find All Airport Services Find A Hotel Find A Rental Car Find A Golf Course Find A Restaurant $100 Hamburger



FBO's on the Field
FBO Company Facility Photos Services Transportation Aviation Fuel Prices: Prices include tax
Catering Weather Repair Courtesy Rental Type 100LL JetA JetA+ MOGAS 8087
 
Avflight Flint

This FBO has not yet been rated
FS:Avfuel
Last Updated: Oct-13
Login to update fuel prices
SS:
Contact Avflight FlintMore FBO Information
 
Add another FBO Facility Photos Catering Weather Repair Courtesy Rental Type 100LL JetA JetA+ MOGAS 8087
Services Transportation Aviation Fuel Prices: Prices include tax


model-print
model-print
model-print
model-print